createdAt,value
2023-03-15T00:03:15.631Z,4.50
2023-03-15T00:06:37.558Z,4.70
2023-03-15T00:09:59.445Z,4.60
2023-03-15T00:13:21.397Z,5.30
2023-03-15T00:16:43.184Z,3.70
2023-03-15T00:20:06.641Z,3.90
2023-03-15T00:23:28.484Z,4.60
2023-03-15T00:26:52.860Z,4.10
2023-03-15T00:30:14.729Z,3.80
2023-03-15T00:33:36.470Z,3.60
2023-03-15T00:36:58.150Z,4.00
2023-03-15T00:40:19.962Z,4.20
2023-03-15T00:43:42.359Z,3.60
2023-03-15T00:47:04.067Z,3.90
2023-03-15T00:50:26.284Z,3.00
2023-03-15T00:53:49.605Z,3.10
2023-03-15T00:57:11.368Z,2.50
2023-03-15T01:00:33.096Z,2.70
2023-03-15T01:03:55.408Z,2.60
2023-03-15T01:07:19.072Z,2.80
2023-03-15T01:10:40.799Z,2.00
2023-03-15T01:14:05.116Z,1.40
2023-03-15T01:17:26.908Z,1.70
2023-03-15T01:20:48.641Z,2.00
2023-03-15T01:24:15.127Z,1.70
2023-03-15T01:27:36.879Z,1.40
2023-03-15T01:31:00.101Z,1.30
2023-03-15T01:34:22.119Z,1.30
2023-03-15T01:37:43.812Z,1.00
2023-03-15T01:41:05.852Z,1.30
2023-03-15T01:44:54.272Z,1.20
2023-03-15T01:48:16.330Z,1.00
2023-03-15T01:51:49.609Z,1.00
2023-03-15T01:55:17.262Z,1.20
2023-03-15T01:58:53.038Z,1.30
2023-03-15T02:02:15.397Z,0.80
2023-03-15T02:05:46.150Z,0.90
2023-03-15T02:09:14.922Z,0.60
2023-03-15T02:12:45.501Z,0.60
2023-03-15T02:16:07.908Z,1.10
2023-03-15T02:19:44.327Z,0.70
2023-03-15T02:23:09.110Z,0.60
2023-03-15T02:26:44.590Z,0.60
2023-03-15T02:30:07.865Z,0.60
2023-03-15T02:33:33.396Z,0.70
2023-03-15T02:36:55.775Z,0.60
2023-03-15T02:40:22.317Z,0.60
2023-03-15T02:43:44.268Z,0.40
2023-03-15T02:47:10.560Z,0.50
2023-03-15T02:50:32.863Z,0.70
2023-03-15T02:53:54.910Z,0.50
2023-03-15T02:57:19.621Z,0.60
2023-03-15T03:00:41.916Z,0.40
2023-03-15T03:04:03.810Z,0.40
2023-03-15T03:07:25.619Z,0.60
2023-03-15T03:10:52.311Z,0.60
2023-03-15T03:14:14.244Z,0.70
2023-03-15T03:17:37.549Z,1.20
2023-03-15T03:20:59.833Z,0.40
2023-03-15T03:24:21.917Z,0.60
2023-03-15T03:27:44.090Z,0.40
2023-03-15T03:31:06.834Z,0.50
2023-03-15T03:34:29.239Z,0.50
2023-03-15T03:37:53.924Z,0.50
2023-03-15T03:44:43.050Z,0.80
2023-03-15T03:48:05.207Z,0.40
2023-03-15T03:51:27.740Z,0.60
2023-03-15T03:54:49.500Z,0.50
2023-03-15T03:58:11.193Z,0.50
2023-03-15T04:01:42.190Z,0.40
2023-03-15T04:05:05.944Z,0.70
2023-03-15T04:08:28.133Z,0.60
2023-03-15T04:11:50.866Z,0.40
2023-03-15T04:15:12.853Z,0.60
2023-03-15T04:18:34.886Z,0.50
2023-03-15T04:21:57.372Z,0.80
2023-03-15T04:25:58.148Z,0.80
2023-03-15T04:29:46.131Z,0.60
2023-03-15T04:33:29.021Z,0.50
2023-03-15T04:37:23.148Z,0.80
2023-03-15T04:41:11.194Z,0.70
2023-03-15T04:44:58.774Z,0.50
2023-03-15T04:48:52.943Z,0.40
2023-03-15T04:52:40.479Z,0.60
2023-03-15T04:56:20.969Z,0.50
2023-03-15T05:00:15.482Z,0.60
2023-03-15T05:04:03.258Z,0.50
2023-03-15T05:07:50.465Z,0.60
2023-03-15T05:11:47.574Z,0.70
2023-03-15T05:15:29.136Z,0.40
2023-03-15T05:19:29.200Z,0.60
2023-03-15T05:23:10.874Z,0.60
2023-03-15T05:26:58.881Z,0.60
2023-03-15T05:30:56.153Z,0.50
2023-03-15T05:34:40.895Z,0.80
2023-03-15T05:38:19.790Z,0.80
2023-03-15T05:41:59.908Z,0.50
2023-03-15T05:45:48.787Z,0.60
2023-03-15T05:49:27.178Z,0.50
2023-03-15T05:53:00.896Z,0.90
2023-03-15T05:56:31.171Z,0.50
2023-03-15T06:00:16.439Z,0.90
2023-03-15T06:03:38.154Z,0.80
2023-03-15T06:07:05.608Z,0.80
2023-03-15T06:10:27.913Z,1.30
2023-03-15T06:13:50.389Z,0.90
2023-03-15T06:17:25.448Z,0.80
2023-03-15T06:20:47.240Z,1.40
2023-03-15T06:24:09.209Z,0.80
2023-03-15T06:27:31.302Z,0.80
2023-03-15T06:30:53.583Z,0.80
2023-03-15T06:34:18.862Z,1.10
2023-03-15T06:37:42.011Z,0.80
2023-03-15T06:41:05.375Z,0.90
2023-03-15T06:44:29.390Z,0.90
2023-03-15T06:47:54.662Z,0.90
2023-03-15T06:51:18.694Z,1.30
2023-03-15T06:54:40.403Z,1.40
2023-03-15T06:58:05.268Z,1.00
2023-03-15T07:01:27.086Z,1.10
2023-03-15T07:04:49.663Z,0.80
2023-03-15T07:08:11.362Z,0.90
2023-03-15T07:11:33.543Z,1.00
2023-03-15T07:14:55.206Z,1.10
2023-03-15T07:18:16.876Z,1.10
2023-03-15T07:21:39.086Z,0.70
2023-03-15T07:25:00.851Z,1.10
2023-03-15T07:28:24.174Z,1.20
2023-03-15T07:31:45.891Z,0.90
2023-03-15T07:35:08.051Z,1.00
2023-03-15T07:38:29.969Z,1.30
2023-03-15T07:41:54.445Z,0.90
2023-03-15T07:45:27.249Z,1.60
2023-03-15T07:48:49.009Z,1.00
2023-03-15T07:52:12.824Z,1.00
2023-03-15T07:55:35.374Z,1.10
2023-03-15T07:58:59.253Z,1.30
2023-03-15T08:02:21.072Z,1.30
2023-03-15T08:05:42.784Z,1.20
2023-03-15T08:09:06.095Z,1.20
2023-03-15T08:12:27.801Z,2.30
2023-03-15T08:15:49.613Z,2.10
2023-03-15T08:19:11.454Z,1.90
2023-03-15T08:22:33.196Z,1.30
2023-03-15T08:25:54.982Z,1.40
2023-03-15T08:29:16.879Z,1.60
2023-03-15T08:32:40.442Z,1.30
2023-03-15T08:36:02.292Z,1.40
2023-03-15T08:39:24.252Z,1.30
2023-03-15T08:42:46.239Z,1.40
2023-03-15T08:46:08.201Z,1.30
2023-03-15T08:49:30.011Z,1.10
2023-03-15T08:52:51.982Z,1.40
2023-03-15T08:56:13.727Z,1.60
2023-03-15T08:59:35.429Z,1.10
2023-03-15T09:02:57.129Z,1.90
2023-03-15T09:06:18.900Z,1.00
2023-03-15T09:09:40.797Z,1.30
2023-03-15T09:13:02.912Z,1.20
2023-03-15T09:16:24.913Z,1.50
2023-03-15T09:19:46.867Z,1.30
2023-03-15T09:23:08.592Z,1.60
2023-03-15T09:26:30.908Z,1.10
2023-03-15T09:29:53.708Z,1.20
2023-03-15T09:33:15.451Z,1.20
2023-03-15T09:36:37.508Z,1.20
2023-03-15T09:39:59.441Z,1.10
2023-03-15T09:43:47.312Z,1.40
2023-03-15T09:48:01.045Z,1.40
2023-03-15T09:52:10.931Z,1.30
2023-03-15T09:55:33.278Z,1.00
2023-03-15T09:58:58.983Z,1.20
2023-03-15T10:02:30.964Z,1.40
2023-03-15T10:05:57.186Z,1.00
2023-03-15T10:09:22.799Z,1.00
2023-03-15T10:12:47.336Z,1.20
2023-03-15T10:16:18.951Z,1.10
2023-03-15T10:19:55.313Z,1.20
2023-03-15T10:23:20.996Z,1.40
2023-03-15T10:30:31.293Z,1.40
2023-03-15T10:33:56.751Z,0.90
2023-03-15T10:37:19.601Z,1.10
2023-03-15T10:40:46.982Z,1.40
2023-03-15T10:44:35.264Z,0.90
2023-03-15T10:48:00.574Z,1.10
2023-03-15T10:51:38.310Z,1.00
2023-03-15T10:55:04.667Z,1.50
2023-03-15T10:58:31.462Z,0.90
2023-03-15T11:01:56.075Z,1.10
2023-03-15T11:05:19.015Z,1.30
2023-03-15T11:08:42.041Z,1.40
2023-03-15T11:12:06.465Z,1.20
2023-03-15T11:15:32.501Z,1.20
2023-03-15T11:19:04.026Z,1.40
2023-03-15T11:22:26.517Z,2.10
2023-03-15T11:25:48.282Z,0.90
2023-03-15T11:29:34.344Z,1.40
2023-03-15T11:32:59.114Z,1.20
2023-03-15T11:36:23.682Z,1.40
2023-03-15T11:40:11.845Z,1.00
2023-03-15T11:47:25.258Z,1.40
2023-03-15T11:50:47.017Z,1.80
2023-03-15T11:54:08.742Z,1.70
2023-03-15T11:57:40.760Z,1.90
2023-03-15T12:01:04.767Z,1.70
2023-03-15T12:04:32.098Z,2.20
2023-03-15T12:08:02.045Z,2.20
2023-03-15T12:11:23.771Z,2.20
2023-03-15T12:14:45.708Z,2.00
2023-03-15T12:18:15.253Z,2.10
2023-03-15T12:21:44.016Z,2.20
2023-03-15T12:25:14.444Z,2.00
2023-03-15T12:28:36.529Z,2.00
2023-03-15T12:32:00.200Z,2.60
2023-03-15T12:35:23.804Z,2.00
2023-03-15T12:39:01.877Z,1.40
2023-03-15T12:42:30.838Z,2.20
2023-03-15T12:45:53.028Z,2.00
2023-03-15T12:49:23.989Z,2.20
2023-03-15T12:52:47.473Z,2.10
2023-03-15T12:56:18.407Z,2.00
2023-03-15T12:59:47.212Z,1.90
2023-03-15T13:03:12.461Z,1.70
2023-03-15T13:06:46.328Z,2.00
2023-03-15T13:10:18.854Z,2.00
2023-03-15T13:14:11.921Z,2.20
2023-03-15T13:17:50.676Z,1.90
2023-03-15T13:21:31.073Z,2.30
2023-03-15T13:25:09.855Z,2.00
2023-03-15T13:28:47.757Z,2.40
2023-03-15T13:32:13.879Z,2.60
2023-03-15T13:36:04.737Z,2.10
2023-03-15T13:39:27.494Z,2.10
2023-03-15T13:42:49.630Z,1.40
2023-03-15T13:46:11.742Z,1.80
2023-03-15T13:49:34.542Z,1.60
2023-03-15T13:52:56.550Z,1.80
2023-03-15T13:56:22.647Z,2.40
2023-03-15T13:59:47.942Z,2.20
2023-03-15T14:03:15.358Z,1.80
2023-03-15T14:06:37.466Z,2.10
2023-03-15T14:10:27.465Z,2.20
2023-03-15T14:13:53.242Z,2.50
2023-03-15T14:17:29.956Z,2.30
2023-03-15T14:21:07.550Z,2.50
2023-03-15T14:24:39.362Z,1.90
2023-03-15T14:28:02.505Z,2.30
2023-03-15T14:31:27.432Z,2.40
2023-03-15T14:34:49.623Z,2.20
2023-03-15T14:38:25.962Z,2.50
2023-03-15T14:41:47.640Z,2.70
2023-03-15T14:45:09.667Z,2.20
2023-03-15T14:48:34.600Z,1.60
2023-03-15T14:52:01.083Z,2.10
2023-03-15T14:55:25.081Z,2.00
2023-03-15T14:58:46.934Z,2.10
2023-03-15T15:02:15.270Z,1.60
2023-03-15T15:05:37.387Z,1.90
2023-03-15T15:09:00.282Z,1.70
2023-03-15T15:12:22.027Z,1.20
2023-03-15T15:15:55.128Z,1.70
2023-03-15T15:19:17.461Z,1.60
2023-03-15T15:22:45.423Z,1.70
2023-03-15T15:26:15.121Z,1.90
2023-03-15T15:29:36.892Z,2.00
2023-03-15T15:32:58.670Z,2.30
2023-03-15T15:36:46.580Z,2.50
2023-03-15T15:40:16.063Z,8.60
2023-03-15T15:43:37.799Z,7.90
2023-03-15T15:47:01.145Z,5.70
2023-03-15T15:50:23.134Z,6.30
2023-03-15T15:53:45.158Z,6.90
2023-03-15T15:57:07.406Z,7.90
2023-03-15T16:00:30.228Z,9.00
2023-03-15T16:03:52.658Z,8.10
2023-03-15T16:07:16.128Z,8.10
2023-03-15T16:10:37.983Z,7.90
2023-03-15T16:14:00.148Z,7.40
2023-03-15T16:17:26.570Z,8.10
2023-03-15T16:20:50.368Z,7.40
2023-03-15T16:24:25.481Z,6.40
2023-03-15T16:27:47.274Z,6.90
2023-03-15T16:31:09.053Z,6.30
2023-03-15T16:34:34.458Z,7.00
2023-03-15T16:37:59.219Z,5.50
2023-03-15T16:41:20.926Z,6.60
2023-03-15T16:44:43.072Z,5.40
2023-03-15T16:48:05.057Z,4.80
2023-03-15T16:51:27.613Z,5.00
2023-03-15T16:54:49.451Z,5.20
2023-03-15T16:58:20.546Z,4.90
2023-03-15T17:01:43.448Z,5.30
2023-03-15T17:05:06.552Z,4.20
2023-03-15T17:08:28.968Z,5.30
2023-03-15T17:11:52.535Z,4.00
2023-03-15T17:15:14.873Z,3.90
2023-03-15T17:18:36.772Z,3.90
2023-03-15T17:21:59.292Z,3.20
2023-03-15T17:25:21.055Z,3.70
2023-03-15T17:28:43.686Z,4.50
2023-03-15T17:32:11.176Z,3.60
2023-03-15T17:35:39.021Z,3.70
2023-03-15T17:39:04.141Z,3.10
2023-03-15T17:42:26.071Z,2.50
2023-03-15T17:45:48.193Z,2.60
2023-03-15T17:49:15.057Z,3.20
2023-03-15T17:52:37.306Z,3.40
2023-03-15T17:55:59.082Z,3.60
2023-03-15T17:59:21.104Z,2.80
2023-03-15T18:02:49.849Z,3.20
2023-03-15T18:06:21.251Z,2.90
2023-03-15T18:09:43.218Z,3.20
2023-03-15T18:13:05.569Z,3.00
2023-03-15T18:16:27.597Z,3.20
2023-03-15T18:23:25.360Z,3.00
2023-03-15T18:26:47.219Z,3.30
2023-03-15T18:30:11.988Z,3.40
2023-03-15T18:33:34.120Z,3.70
2023-03-15T18:36:56.013Z,3.30
2023-03-15T18:40:19.405Z,2.90
2023-03-15T18:43:43.920Z,2.60
2023-03-15T18:47:08.018Z,2.90
2023-03-15T18:50:31.348Z,3.10
2023-03-15T18:53:53.462Z,3.30
2023-03-15T18:57:15.369Z,3.50
2023-03-15T19:00:37.864Z,3.10
2023-03-15T19:04:01.584Z,3.00
2023-03-15T19:07:23.339Z,2.90
2023-03-15T19:10:47.067Z,3.20
2023-03-15T19:14:14.416Z,3.10
2023-03-15T19:17:36.792Z,3.10
2023-03-15T19:20:58.982Z,3.50
2023-03-15T19:24:23.895Z,3.60
2023-03-15T19:27:45.712Z,3.80
2023-03-15T19:31:09.119Z,4.00
2023-03-15T19:34:31.760Z,3.60
2023-03-15T19:37:53.970Z,3.20
2023-03-15T19:41:17.892Z,3.30
2023-03-15T19:44:39.741Z,3.80
2023-03-15T19:48:01.602Z,4.10
2023-03-15T19:51:23.637Z,4.30
2023-03-15T19:54:47.157Z,4.20
2023-03-15T19:58:09.075Z,4.40
2023-03-15T20:01:32.636Z,4.90
2023-03-15T20:04:54.420Z,3.40
2023-03-15T20:08:16.230Z,4.10
2023-03-15T20:11:38.031Z,4.30
2023-03-15T20:15:02.170Z,4.40
2023-03-15T20:18:24.120Z,4.40
2023-03-15T20:21:48.271Z,4.50
2023-03-15T20:25:13.583Z,5.80
2023-03-15T20:28:35.526Z,5.00
2023-03-15T20:31:57.734Z,4.80
2023-03-15T20:35:19.572Z,4.50
2023-03-15T20:38:45.361Z,4.60
2023-03-15T20:42:07.207Z,4.50
2023-03-15T20:45:51.433Z,5.00
2023-03-15T20:49:48.119Z,4.60
2023-03-15T20:53:09.888Z,4.50
2023-03-15T20:56:33.651Z,4.30
2023-03-15T20:59:55.753Z,5.20
2023-03-15T21:03:19.352Z,4.40
2023-03-15T21:06:41.056Z,4.80
2023-03-15T21:10:04.237Z,4.90
2023-03-15T21:13:26.476Z,4.80
2023-03-15T21:16:48.145Z,4.50
2023-03-15T21:20:12.663Z,3.80
2023-03-15T21:24:08.032Z,5.10
2023-03-15T21:27:47.949Z,4.20
2023-03-15T21:31:26.565Z,4.10
2023-03-15T21:34:57.227Z,4.00
2023-03-15T21:38:22.094Z,4.30
2023-03-15T21:41:48.409Z,4.90
2023-03-15T21:45:14.956Z,4.10
2023-03-15T21:48:39.877Z,4.80
2023-03-15T21:52:03.039Z,4.50
2023-03-15T21:55:45.825Z,5.20
2023-03-15T21:59:10.928Z,4.40
2023-03-15T22:06:08.579Z,4.90
2023-03-15T22:09:32.838Z,4.10
2023-03-15T22:12:54.670Z,4.50
2023-03-15T22:16:17.734Z,5.20
2023-03-15T22:19:43.121Z,4.70
2023-03-15T22:23:05.586Z,4.40
2023-03-15T22:26:41.919Z,4.90
2023-03-15T22:30:05.699Z,5.60
2023-03-15T22:33:27.568Z,4.80
2023-03-15T22:36:49.252Z,4.90
2023-03-15T22:40:14.182Z,5.80
2023-03-15T22:43:37.160Z,4.80
2023-03-15T22:46:58.870Z,4.60
2023-03-15T22:50:21.505Z,5.50
2023-03-15T22:53:43.296Z,5.00
2023-03-15T22:57:06.309Z,5.60
2023-03-15T23:00:28.237Z,5.60
2023-03-15T23:03:50.158Z,5.30
2023-03-15T23:07:21.552Z,5.50
2023-03-15T23:10:43.360Z,5.90
2023-03-15T23:14:28.277Z,6.20
2023-03-15T23:19:09.483Z,5.70
2023-03-15T23:23:08.187Z,6.40
2023-03-15T23:26:29.992Z,6.20
2023-03-15T23:29:55.439Z,6.70
2023-03-15T23:33:18.095Z,6.40
2023-03-15T23:36:47.234Z,5.80
2023-03-15T23:40:26.929Z,6.60
2023-03-15T23:43:48.957Z,6.80
2023-03-15T23:47:12.371Z,6.70
2023-03-15T23:50:34.136Z,6.00
2023-03-15T23:53:57.894Z,6.70
2023-03-15T23:57:20.173Z,6.20
